Terminal Aerodrome Forecast
Issued by NWS

Home | Current Version | Previous Version | Text Only | Print | Product List | Glossary On
Versions: 1 2 3 4 5 6 7 8 9 10 11 12 13 14 15 16 17 18 19 20 21 22 23 24 25 26 27 28 29 30 31 32 33 34
000
FTUS41 KOKX 212201 AAB
TAFGON
TAF AMD
KGON 212201Z 2122/2218 36015G25KT P6SM VCSH OVC100
     FM220600 36017G28KT P6SM VCSH SCT025 OVC080
      TEMPO 2206/2210 5SM -SHRA BKN025
     FM221300 36020G29KT P6SM VCSH SCT025 OVC050=

USA.gov is the U.S. government's official web portal to all federal, state and local government web resources and services.